Terminal Aerodrome Forecast
Issued by NWS

Current Version | Previous Version | Text Only | Print | Product List | Glossary On
Versions: 1 2 3 4 5 6 7 8 9 10 11 12
781
FTUS45 KTFX 121140
TAFLWT
TAF
KLWT 121140Z 1212/1312 12006KT P6SM SCT040 BKN090
      TEMPO 1212/1215 5SM -RASN BKN040
     FM121900 19010KT P6SM SCT030 BKN060
     FM130200 24007KT P6SM SCT060 BKN120=

USA.gov is the U.S. government's official web portal to all federal, state and local government web resources and services.